CheckWX is a tool to help pilots better visualize weather data.  It is not intended as a substitute for an official pre-flight weather briefing.

06:46:50 UTC

HCMH METAR
Egal International Airport
Hargeisa
Current

47 mins ago

HCMH 210600Z 18018KT 9999 FEW020 25/19 Q1021
Observed
May-21 @ 06:00 UTC
Wind
  • 180° at 18 KTS
Visibility
10,000+ meters
Flight Rules
VFR
Cloud Levels
  • Few at 2,000' AGL
Temperature
25°C / 77°F
Dewpoint
19°C / 66°F
Humidity
69%
Altimeter
30.15" Hg
Pressure
1020.92 hPa
Previous

18 hours ago

HCMH 201300Z 00000KT 9999 BKN019 24/20 Q1019
Observed
May-20 @ 13:00 UTC
Visibility
10,000+ meters
Flight Rules
MVFR
Cloud Levels
  • Broken at 1,900' AGL
Temperature
24°C / 75°F
Dewpoint
20°C / 68°F
Humidity
78%
Altimeter
30.09" Hg
Pressure
1018.92 hPa
Previous

19 hours ago

HCMH 201200Z 13004KT 9999 BKN020 23/19 Q1020
Observed
May-20 @ 12:00 UTC
Wind
  • 130° at 4 KTS
Visibility
10,000+ meters
Flight Rules
MVFR
Cloud Levels
  • Broken at 2,000' AGL
Temperature
23°C / 73°F
Dewpoint
19°C / 66°F
Humidity
78%
Altimeter
30.12" Hg
Pressure
1019.92 hPa